createdAt,value
2018-12-19T00:00:20.533Z,7.57
2018-12-19T00:02:52.210Z,6.40
2018-12-19T00:05:23.719Z,7.57
2018-12-19T00:07:55.328Z,7.27
2018-12-19T00:10:26.827Z,8.70
2018-12-19T00:12:58.429Z,8.53
2018-12-19T00:15:29.933Z,8.67
2018-12-19T00:18:01.444Z,7.80
2018-12-19T00:20:32.936Z,9.00
2018-12-19T00:23:04.711Z,9.07
2018-12-19T00:25:36.236Z,8.40
2018-12-19T00:28:07.829Z,8.23
2018-12-19T00:30:39.423Z,8.10
2018-12-19T00:33:10.921Z,8.03
2018-12-19T00:35:42.354Z,8.67
2018-12-19T00:38:13.900Z,8.93
2018-12-19T00:40:45.325Z,8.67
2018-12-19T00:43:16.923Z,7.57
2018-12-19T00:45:48.531Z,8.00
2018-12-19T00:48:20.104Z,7.90
2018-12-19T00:50:51.694Z,8.30
2018-12-19T00:53:23.141Z,9.57
2018-12-19T00:55:54.838Z,8.77
2018-12-19T00:58:26.438Z,9.90
2018-12-19T01:00:57.999Z,8.70
2018-12-19T01:03:29.420Z,8.33
2018-12-19T01:06:01.023Z,8.10
2018-12-19T01:08:32.615Z,8.30
2018-12-19T01:11:04.189Z,7.13
2018-12-19T01:13:35.764Z,6.13
2018-12-19T01:16:07.227Z,5.30
2018-12-19T01:18:38.781Z,6.00
2018-12-19T01:21:10.237Z,5.70
2018-12-19T01:23:41.788Z,6.47
2018-12-19T01:26:13.291Z,7.53
2018-12-19T01:28:44.897Z,9.17
2018-12-19T01:31:16.505Z,8.93
2018-12-19T01:33:48.018Z,8.83
2018-12-19T01:36:19.540Z,8.30
2018-12-19T01:38:51.818Z,9.10
2018-12-19T01:41:23.287Z,8.17
2018-12-19T01:43:54.833Z,7.33
2018-12-19T01:46:26.310Z,8.40
2018-12-19T01:48:57.821Z,7.77
2018-12-19T01:51:29.333Z,9.30
2018-12-19T01:54:00.834Z,9.20
2018-12-19T01:56:32.294Z,9.73
2018-12-19T01:59:03.842Z,8.27
2018-12-19T02:01:35.300Z,8.73
2018-12-19T02:04:06.948Z,8.33
2018-12-19T02:06:38.407Z,7.57
2018-12-19T02:09:10.572Z,9.07
2018-12-19T02:11:42.077Z,7.87
2018-12-19T02:14:13.580Z,8.23
2018-12-19T02:16:45.129Z,6.40
2018-12-19T02:19:16.585Z,6.80
2018-12-19T02:21:48.132Z,5.47
2018-12-19T02:24:19.546Z,5.80
2018-12-19T02:26:51.143Z,7.50
2018-12-19T02:29:22.597Z,8.20
2018-12-19T02:31:54.134Z,7.93
2018-12-19T02:34:25.597Z,8.83
2018-12-19T02:36:57.206Z,9.73
2018-12-19T02:39:28.615Z,7.93
2018-12-19T02:42:00.148Z,7.07
2018-12-19T02:44:31.677Z,5.93
2018-12-19T02:47:03.260Z,6.23
2018-12-19T02:49:39.778Z,7.93
2018-12-19T02:52:11.378Z,7.67
2018-12-19T02:54:42.961Z,7.50
2018-12-19T02:57:14.397Z,6.80
2018-12-19T02:59:46.001Z,6.97
2018-12-19T03:02:17.517Z,6.37
2018-12-19T03:04:49.054Z,8.07
2018-12-19T03:07:20.519Z,5.13
2018-12-19T03:09:52.115Z,5.83
2018-12-19T03:12:23.619Z,6.40
2018-12-19T03:14:55.215Z,5.37
2018-12-19T03:17:26.625Z,5.63
2018-12-19T03:19:58.232Z,6.37
2018-12-19T03:22:29.735Z,5.50
2018-12-19T03:25:01.269Z,3.83
2018-12-19T03:27:32.740Z,8.30
2018-12-19T03:30:04.348Z,8.30
2018-12-19T03:32:35.843Z,9.13
2018-12-19T03:35:07.518Z,9.30
2018-12-19T03:37:38.960Z,9.80
2018-12-19T03:40:10.505Z,9.30
2018-12-19T03:42:41.908Z,7.03
2018-12-19T03:45:13.506Z,6.83
2018-12-19T03:47:45.050Z,8.10
2018-12-19T03:50:16.585Z,7.23
2018-12-19T03:52:48.220Z,6.07
2018-12-19T03:55:19.788Z,6.70
2018-12-19T03:57:51.448Z,8.23
2018-12-19T04:00:22.948Z,6.60
2018-12-19T04:02:54.541Z,7.57
2018-12-19T04:05:27.091Z,10.70
2018-12-19T04:07:58.633Z,11.83
2018-12-19T04:10:30.325Z,13.37
2018-12-19T04:13:01.955Z,13.13
2018-12-19T04:15:33.589Z,14.40
2018-12-19T04:18:05.008Z,13.47
2018-12-19T04:20:36.605Z,14.37
2018-12-19T04:23:08.095Z,14.60
2018-12-19T04:25:39.704Z,13.87
2018-12-19T04:28:11.310Z,13.73
2018-12-19T04:30:42.920Z,15.10
2018-12-19T04:33:14.461Z,14.40
2018-12-19T04:35:46.236Z,16.03
2018-12-19T04:38:17.819Z,14.00
2018-12-19T04:40:49.210Z,14.30
2018-12-19T04:43:20.767Z,15.17
2018-12-19T04:45:52.391Z,13.80
2018-12-19T04:48:23.905Z,13.97
2018-12-19T04:50:55.508Z,14.00
2018-12-19T04:53:27.004Z,13.93
2018-12-19T04:55:58.608Z,12.83
2018-12-19T04:58:30.123Z,13.33
2018-12-19T05:01:01.717Z,13.27
2018-12-19T05:03:33.225Z,13.77
2018-12-19T05:06:04.784Z,14.80
2018-12-19T05:08:36.324Z,15.10
2018-12-19T05:11:07.840Z,14.23
2018-12-19T05:13:39.329Z,13.63
2018-12-19T05:16:10.979Z,15.30
2018-12-19T05:18:42.444Z,14.97
2018-12-19T05:21:13.991Z,13.83
2018-12-19T05:23:45.458Z,13.17
2018-12-19T05:26:17.008Z,12.93
2018-12-19T05:28:48.456Z,11.77
2018-12-19T05:31:19.992Z,9.70
2018-12-19T05:33:51.468Z,12.97
2018-12-19T05:36:23.008Z,12.73
2018-12-19T05:38:55.134Z,8.70
2018-12-19T05:41:26.630Z,8.40
2018-12-19T05:43:58.231Z,9.17
2018-12-19T05:46:29.752Z,13.83
2018-12-19T05:49:01.148Z,13.63
2018-12-19T05:51:32.828Z,13.60
2018-12-19T05:54:04.341Z,13.23
2018-12-19T05:56:36.053Z,10.77
2018-12-19T05:59:07.480Z,10.93
2018-12-19T06:01:39.073Z,11.37
2018-12-19T06:04:10.556Z,12.63
2018-12-19T06:06:42.164Z,10.90
2018-12-19T06:09:13.809Z,8.60
2018-12-19T06:11:45.479Z,11.20
2018-12-19T06:14:16.883Z,9.50
2018-12-19T06:16:48.478Z,12.60
2018-12-19T06:19:19.947Z,12.57
2018-12-19T06:21:51.543Z,11.50
2018-12-19T06:24:23.090Z,9.33
2018-12-19T06:26:54.757Z,10.30
2018-12-19T06:29:26.255Z,9.53
2018-12-19T06:31:57.801Z,10.03
2018-12-19T06:34:29.356Z,11.00
2018-12-19T06:37:00.964Z,13.60
2018-12-19T06:39:32.568Z,12.37
2018-12-19T06:42:04.179Z,13.53
2018-12-19T06:44:35.702Z,11.13
2018-12-19T06:47:07.087Z,12.93
2018-12-19T06:49:38.814Z,10.53
2018-12-19T06:52:10.283Z,9.97
2018-12-19T06:54:41.785Z,13.20
2018-12-19T06:57:13.201Z,12.87
2018-12-19T06:59:44.792Z,13.80
2018-12-19T07:02:16.237Z,13.40
2018-12-19T07:04:47.894Z,11.70
2018-12-19T07:07:19.368Z,13.63
2018-12-19T07:09:51.016Z,13.30
2018-12-19T07:12:22.560Z,12.13
2018-12-19T07:14:54.131Z,11.93
2018-12-19T07:17:25.651Z,14.37
2018-12-19T07:19:57.134Z,13.33
2018-12-19T07:22:28.732Z,14.53
2018-12-19T07:25:00.247Z,12.27
2018-12-19T07:27:31.790Z,13.97
2018-12-19T07:30:03.265Z,14.07
2018-12-19T07:32:34.777Z,11.53
2018-12-19T07:35:06.642Z,11.00
2018-12-19T07:37:38.197Z,11.60
2018-12-19T07:40:09.617Z,15.07
2018-12-19T07:42:41.208Z,15.27
2018-12-19T07:45:12.820Z,14.73
2018-12-19T07:47:44.324Z,14.53
2018-12-19T07:50:15.824Z,15.33
2018-12-19T07:52:47.696Z,15.27
2018-12-19T07:55:19.284Z,14.70
2018-12-19T07:57:50.703Z,13.17
2018-12-19T08:00:27.466Z,14.03
2018-12-19T08:02:55.888Z,14.73
2018-12-19T08:05:27.320Z,13.93
2018-12-19T08:07:58.900Z,14.80
2018-12-19T08:10:30.400Z,14.00
2018-12-19T08:13:01.895Z,13.87
2018-12-19T08:15:33.346Z,15.53
2018-12-19T08:18:05.675Z,15.03
2018-12-19T08:20:37.389Z,15.50
2018-12-19T08:23:08.826Z,14.33
2018-12-19T08:25:40.401Z,14.83
2018-12-19T08:28:11.906Z,13.70
2018-12-19T08:30:43.412Z,13.67
2018-12-19T08:33:15.012Z,14.93
2018-12-19T08:35:46.516Z,14.20
2018-12-19T08:38:18.196Z,13.87
2018-12-19T08:40:49.760Z,12.60
2018-12-19T08:43:21.132Z,14.47
2018-12-19T08:45:53.232Z,14.40
2018-12-19T08:48:25.000Z,14.07
2018-12-19T08:50:56.955Z,13.83
2018-12-19T08:53:28.647Z,10.00
2018-12-19T08:56:00.264Z,13.27
2018-12-19T08:58:31.682Z,13.03
2018-12-19T09:01:03.284Z,12.27
2018-12-19T09:03:34.696Z,13.30
2018-12-19T09:06:06.491Z,13.30
2018-12-19T09:08:38.032Z,12.90
2018-12-19T09:11:09.593Z,10.93
2018-12-19T09:13:41.010Z,14.57
2018-12-19T09:16:12.591Z,14.40
2018-12-19T09:18:44.165Z,13.37
2018-12-19T09:21:15.704Z,13.37
2018-12-19T09:23:47.316Z,13.60
2018-12-19T09:26:21.678Z,14.00
2018-12-19T09:28:53.189Z,11.60
2018-12-19T09:31:24.780Z,13.97
2018-12-19T09:33:56.405Z,14.57
2018-12-19T09:36:27.895Z,13.63
2018-12-19T09:38:59.498Z,9.53
2018-12-19T09:41:31.009Z,13.13
2018-12-19T09:44:02.407Z,13.93
2018-12-19T09:46:34.113Z,10.50
2018-12-19T09:49:12.220Z,13.37
2018-12-19T09:51:39.176Z,14.13
2018-12-19T09:54:10.715Z,11.90
2018-12-19T09:56:42.370Z,13.70
2018-12-19T09:59:13.926Z,13.13
2018-12-19T10:01:45.442Z,12.57
2018-12-19T10:04:17.083Z,14.10
2018-12-19T10:06:48.644Z,14.40
2018-12-19T10:09:20.252Z,14.47
2018-12-19T10:11:51.897Z,14.90
2018-12-19T10:14:23.458Z,15.07
2018-12-19T10:16:58.448Z,15.00
2018-12-19T10:19:29.936Z,14.33
2018-12-19T10:22:01.487Z,13.40
2018-12-19T10:24:38.218Z,15.30
2018-12-19T10:27:11.882Z,14.83
2018-12-19T10:29:43.371Z,14.67
2018-12-19T10:32:14.880Z,14.40
2018-12-19T10:34:46.502Z,15.47
2018-12-19T10:37:17.997Z,15.23
2018-12-19T10:39:49.801Z,15.67
2018-12-19T10:42:21.308Z,13.73
2018-12-19T10:44:52.901Z,14.57
2018-12-19T10:47:24.418Z,14.87
2018-12-19T10:49:56.024Z,15.10
2018-12-19T10:52:27.632Z,15.37
2018-12-19T10:54:59.122Z,14.60
2018-12-19T10:57:30.844Z,17.37
2018-12-19T11:00:02.372Z,14.67
2018-12-19T11:02:33.851Z,16.07
2018-12-19T11:05:05.725Z,15.30
2018-12-19T11:07:37.156Z,15.23
2018-12-19T11:10:09.771Z,15.67
2018-12-19T11:12:41.282Z,17.00
2018-12-19T11:15:12.699Z,17.33
2018-12-19T11:17:44.345Z,16.27
2018-12-19T11:20:15.910Z,17.13
2018-12-19T11:22:47.504Z,16.63
2018-12-19T11:25:19.112Z,15.80
2018-12-19T11:27:50.603Z,15.17
2018-12-19T11:30:22.024Z,16.27
2018-12-19T11:32:53.610Z,16.80
2018-12-19T11:35:25.215Z,15.63
2018-12-19T11:37:56.716Z,15.43
2018-12-19T11:40:28.337Z,16.40
2018-12-19T11:42:59.840Z,14.43
2018-12-19T11:45:31.438Z,15.23
2018-12-19T11:48:02.952Z,14.20
2018-12-19T11:50:34.548Z,16.63
2018-12-19T11:53:06.052Z,16.13
2018-12-19T11:55:37.695Z,16.53
2018-12-19T11:58:09.161Z,15.83
2018-12-19T12:00:40.800Z,16.37
2018-12-19T12:03:12.369Z,17.13
2018-12-19T12:05:43.914Z,17.43
2018-12-19T12:08:15.444Z,17.90
2018-12-19T12:10:47.016Z,16.87
2018-12-19T12:13:18.420Z,17.47
2018-12-19T12:15:50.124Z,17.83
2018-12-19T12:18:21.536Z,17.07
2018-12-19T12:20:53.117Z,17.63
2018-12-19T12:23:24.536Z,16.80
2018-12-19T12:25:56.044Z,16.27
2018-12-19T12:28:27.545Z,16.77
2018-12-19T12:30:59.143Z,16.33
2018-12-19T12:33:30.684Z,15.90
2018-12-19T12:36:02.608Z,16.93
2018-12-19T12:38:34.440Z,14.90
2018-12-19T12:41:06.066Z,17.53
2018-12-19T12:43:37.628Z,17.63
2018-12-19T12:46:09.252Z,17.80
2018-12-19T12:48:40.751Z,17.00
2018-12-19T12:51:12.350Z,16.00
2018-12-19T12:53:43.864Z,16.10
2018-12-19T12:56:15.404Z,17.70
2018-12-19T12:58:46.861Z,18.50
2018-12-19T13:01:18.500Z,18.63
2018-12-19T13:03:49.960Z,17.80
2018-12-19T13:06:21.524Z,14.67
2018-12-19T13:08:53.020Z,17.30
2018-12-19T13:11:24.710Z,15.53
2018-12-19T13:13:56.147Z,17.23
2018-12-19T13:16:27.717Z,16.67
2018-12-19T13:18:59.341Z,14.77
2018-12-19T13:21:31.188Z,17.00
2018-12-19T13:24:02.692Z,17.70
2018-12-19T13:26:34.158Z,17.87
2018-12-19T13:29:05.697Z,18.03
2018-12-19T13:31:37.158Z,17.97
2018-12-19T13:34:08.770Z,16.30
2018-12-19T13:36:40.272Z,17.43
2018-12-19T13:39:11.882Z,16.80
2018-12-19T13:41:43.381Z,17.63
2018-12-19T13:44:16.198Z,18.43
2018-12-19T13:46:47.912Z,18.37
2018-12-19T13:49:19.453Z,17.87
2018-12-19T13:51:51.029Z,18.13
2018-12-19T13:54:22.418Z,17.70
2018-12-19T13:56:54.015Z,16.77
2018-12-19T13:59:25.574Z,16.27
2018-12-19T14:01:57.119Z,17.90
2018-12-19T14:04:29.082Z,18.17
2018-12-19T14:07:01.230Z,16.63
2018-12-19T14:09:32.923Z,15.37
2018-12-19T14:12:04.573Z,15.87
2018-12-19T14:14:36.221Z,16.77
2018-12-19T14:17:07.776Z,17.37
2018-12-19T14:19:39.492Z,16.50
2018-12-19T14:22:11.009Z,17.93
2018-12-19T14:24:42.461Z,17.60
2018-12-19T14:27:14.101Z,16.73
2018-12-19T14:29:45.717Z,16.57
2018-12-19T14:32:17.220Z,16.10
2018-12-19T14:34:49.176Z,17.83
2018-12-19T14:37:20.588Z,15.63
2018-12-19T14:39:52.165Z,16.53
2018-12-19T14:42:23.633Z,17.47
2018-12-19T14:44:55.479Z,19.50
2018-12-19T14:47:27.104Z,17.17
2018-12-19T14:49:58.608Z,17.90
2018-12-19T14:52:30.243Z,14.53
2018-12-19T14:55:01.711Z,18.73
2018-12-19T14:57:33.318Z,17.90
2018-12-19T15:00:05.668Z,17.03
2018-12-19T15:02:37.089Z,18.30
2018-12-19T15:05:08.636Z,13.73
2018-12-19T15:07:40.090Z,16.47
2018-12-19T15:10:11.857Z,18.20
2018-12-19T15:12:43.513Z,16.10
2018-12-19T15:15:15.158Z,18.10
2018-12-19T15:17:46.777Z,17.50
2018-12-19T15:20:18.281Z,17.20
2018-12-19T15:22:49.881Z,14.63
2018-12-19T15:25:21.390Z,17.43
2018-12-19T15:27:52.989Z,16.67
2018-12-19T15:30:24.500Z,15.77
2018-12-19T15:32:56.136Z,16.40
2018-12-19T15:35:27.608Z,18.63
2018-12-19T15:37:59.146Z,17.30
2018-12-19T15:40:30.600Z,16.33
2018-12-19T15:43:02.143Z,18.57
2018-12-19T15:45:33.606Z,17.83
2018-12-19T15:48:05.212Z,17.00
2018-12-19T15:50:36.720Z,18.40
2018-12-19T15:53:08.264Z,18.30
2018-12-19T15:55:39.720Z,19.30
2018-12-19T15:58:11.333Z,18.57
2018-12-19T16:00:42.834Z,19.33
2018-12-19T16:03:14.379Z,16.80
2018-12-19T16:05:45.834Z,18.27
2018-12-19T16:08:17.434Z,18.73
2018-12-19T16:10:49.050Z,16.67
2018-12-19T16:13:20.587Z,19.37
2018-12-19T16:15:52.056Z,17.33
2018-12-19T16:18:23.593Z,17.43
2018-12-19T16:20:55.238Z,17.20
2018-12-19T16:23:26.800Z,16.90
2018-12-19T16:25:58.381Z,18.07
2018-12-19T16:28:29.905Z,17.80
2018-12-19T16:31:01.365Z,18.27
2018-12-19T16:33:32.919Z,17.70
2018-12-19T16:36:04.386Z,18.67
2018-12-19T16:38:35.986Z,19.00
2018-12-19T16:41:07.497Z,17.47
2018-12-19T16:43:39.089Z,19.57
2018-12-19T16:46:10.599Z,17.77
2018-12-19T16:48:42.194Z,18.13
2018-12-19T16:51:13.716Z,18.13
2018-12-19T16:53:45.252Z,17.90
2018-12-19T16:56:16.707Z,15.93
2018-12-19T16:58:48.304Z,17.37
2018-12-19T17:01:19.919Z,17.33
2018-12-19T17:03:51.556Z,18.43
2018-12-19T17:06:22.988Z,17.57
2018-12-19T17:08:54.568Z,17.43
2018-12-19T17:11:26.080Z,18.03
2018-12-19T17:13:57.679Z,16.53
2018-12-19T17:16:29.092Z,17.30
2018-12-19T17:19:00.690Z,17.23
2018-12-19T17:21:32.301Z,17.17
2018-12-19T17:24:03.811Z,16.77
2018-12-19T17:26:35.320Z,15.63
2018-12-19T17:29:06.903Z,16.03
2018-12-19T17:31:38.514Z,17.67
2018-12-19T17:34:10.020Z,15.53
2018-12-19T17:36:41.620Z,13.93
2018-12-19T17:39:13.129Z,15.43
2018-12-19T17:41:44.663Z,15.00
2018-12-19T17:44:16.229Z,16.57
2018-12-19T17:46:47.836Z,15.57
2018-12-19T17:49:19.349Z,17.13
2018-12-19T17:51:50.949Z,16.67
2018-12-19T17:54:22.446Z,16.27
2018-12-19T17:56:54.053Z,15.50
2018-12-19T17:59:25.535Z,16.10
2018-12-19T18:01:57.267Z,16.67
2018-12-19T18:04:28.716Z,15.67
2018-12-19T18:07:00.303Z,15.63
2018-12-19T18:09:31.821Z,17.43
2018-12-19T18:12:03.515Z,16.43
2018-12-19T18:14:35.137Z,16.17
2018-12-19T18:17:06.645Z,15.70
2018-12-19T18:19:38.244Z,16.67
2018-12-19T18:22:09.745Z,18.10
2018-12-19T18:24:41.299Z,16.37
2018-12-19T18:27:12.761Z,17.83
2018-12-19T18:29:44.391Z,16.97
2018-12-19T18:32:15.870Z,17.20
2018-12-19T18:34:48.186Z,18.07
2018-12-19T18:37:19.767Z,17.43
2018-12-19T18:39:51.184Z,17.33
2018-12-19T18:42:23.086Z,15.83
2018-12-19T18:44:54.700Z,18.27
2018-12-19T18:47:26.209Z,17.97
2018-12-19T18:49:57.762Z,16.87
2018-12-19T18:52:29.207Z,17.23
2018-12-19T18:55:00.748Z,16.97
2018-12-19T18:57:32.226Z,17.57
2018-12-19T19:00:04.425Z,17.27
2018-12-19T19:02:36.230Z,17.13
2018-12-19T19:05:08.090Z,19.83
2018-12-19T19:07:39.698Z,17.47
2018-12-19T19:10:11.680Z,18.33
2018-12-19T19:12:43.430Z,19.17
2018-12-19T19:15:15.017Z,18.67
2018-12-19T19:17:46.636Z,18.20
2018-12-19T19:20:18.165Z,18.17
2018-12-19T19:22:49.561Z,18.77
2018-12-19T19:25:21.137Z,18.60
2018-12-19T19:27:52.590Z,18.77
2018-12-19T19:30:24.151Z,18.73
2018-12-19T19:32:55.564Z,18.60
2018-12-19T19:35:27.164Z,17.33
2018-12-19T19:37:58.777Z,18.17
2018-12-19T19:40:30.497Z,19.07
2018-12-19T19:43:02.083Z,18.57
2018-12-19T19:45:33.586Z,18.87
2018-12-19T19:48:05.126Z,17.20
2018-12-19T19:50:36.592Z,16.93
2018-12-19T19:53:08.191Z,18.93
2018-12-19T19:55:39.690Z,17.63
2018-12-19T19:58:11.351Z,16.30
2018-12-19T20:00:42.804Z,18.37
2018-12-19T20:03:14.340Z,16.00
2018-12-19T20:05:45.818Z,18.90
2018-12-19T20:08:17.351Z,18.10
2018-12-19T20:10:48.821Z,18.50
2018-12-19T20:13:20.365Z,17.13
2018-12-19T20:15:51.948Z,19.00
2018-12-19T20:18:23.535Z,17.93
2018-12-19T20:20:55.089Z,20.03
2018-12-19T20:23:26.744Z,18.57
2018-12-19T20:25:58.239Z,19.80
2018-12-19T20:28:29.780Z,20.07
2018-12-19T20:31:01.413Z,19.70
2018-12-19T20:33:32.999Z,19.00
2018-12-19T20:36:04.424Z,17.73
2018-12-19T20:38:36.208Z,18.70
2018-12-19T20:41:07.821Z,18.33
2018-12-19T20:43:40.021Z,18.70
2018-12-19T20:46:11.844Z,20.83
2018-12-19T20:48:43.539Z,20.10
2018-12-19T20:51:14.967Z,18.20
2018-12-19T20:53:46.555Z,19.73
2018-12-19T20:56:18.162Z,17.80
2018-12-19T20:58:49.788Z,18.70
2018-12-19T21:01:21.190Z,18.20
2018-12-19T21:03:52.764Z,18.87
2018-12-19T21:06:24.375Z,19.90
2018-12-19T21:08:55.889Z,19.03
2018-12-19T21:11:27.738Z,17.43
2018-12-19T21:13:59.324Z,18.80
2018-12-19T21:16:35.695Z,18.40
2018-12-19T21:19:07.120Z,17.67
2018-12-19T21:21:38.760Z,18.63
2018-12-19T21:24:10.241Z,18.37
2018-12-19T21:26:41.763Z,18.47
2018-12-19T21:29:13.800Z,18.20
2018-12-19T21:31:45.297Z,18.93
2018-12-19T21:34:16.909Z,15.17
2018-12-19T21:36:48.530Z,19.57
2018-12-19T21:39:19.896Z,20.10
2018-12-19T21:41:51.513Z,19.30
2018-12-19T21:44:23.157Z,19.17
2018-12-19T21:46:55.183Z,20.07
2018-12-19T21:49:26.688Z,18.30
2018-12-19T21:51:58.222Z,18.23
2018-12-19T21:54:29.849Z,20.83
2018-12-19T21:57:02.921Z,20.37
2018-12-19T21:59:34.898Z,20.93
2018-12-19T22:02:07.055Z,18.97
2018-12-19T22:04:38.748Z,19.83
2018-12-19T22:07:10.334Z,20.17
2018-12-19T22:09:41.873Z,21.03
2018-12-19T22:12:13.323Z,22.07
2018-12-19T22:14:45.117Z,20.70
2018-12-19T22:17:21.751Z,20.00
2018-12-19T22:19:53.222Z,20.27
2018-12-19T22:22:24.817Z,20.53
2018-12-19T22:24:56.630Z,18.97
2018-12-19T22:27:28.270Z,16.67
2018-12-19T22:29:59.832Z,18.27
2018-12-19T22:32:31.387Z,18.90
2018-12-19T22:35:02.877Z,20.17
2018-12-19T22:37:34.549Z,17.70
2018-12-19T22:40:07.678Z,20.53
2018-12-19T22:42:39.156Z,16.27
2018-12-19T22:45:10.771Z,19.03
2018-12-19T22:47:42.252Z,19.37
2018-12-19T22:50:13.902Z,18.47
2018-12-19T22:52:45.617Z,17.63
2018-12-19T22:55:16.976Z,14.27
2018-12-19T22:57:48.472Z,17.47
2018-12-19T23:00:20.825Z,17.80
2018-12-19T23:02:57.535Z,19.10
2018-12-19T23:05:34.091Z,18.30
2018-12-19T23:08:05.696Z,18.07
2018-12-19T23:10:37.233Z,18.50
2018-12-19T23:13:08.515Z,20.23
2018-12-19T23:15:40.203Z,18.60
2018-12-19T23:18:16.820Z,18.93
2018-12-19T23:20:48.296Z,18.27
2018-12-19T23:23:19.938Z,16.87
2018-12-19T23:25:51.787Z,17.87
2018-12-19T23:28:23.313Z,16.83
2018-12-19T23:30:54.851Z,18.43
2018-12-19T23:33:26.362Z,18.57
2018-12-19T23:35:58.282Z,19.33
2018-12-19T23:38:29.813Z,15.47
2018-12-19T23:41:01.476Z,18.73
2018-12-19T23:43:33.080Z,19.67
2018-12-19T23:46:04.689Z,18.77
2018-12-19T23:48:36.793Z,18.90
2018-12-19T23:51:08.460Z,17.83
2018-12-19T23:53:39.991Z,17.80
2018-12-19T23:56:11.530Z,16.40
2018-12-19T23:58:43.071Z,18.80
